Time;durP1;ratioP1;P1;durP2;ratioP2;P2;SDS_P1;SDS_P2;PMS_P1;PMS_P2;Temp;Humidity;BMP_temperature;BMP_pressure;BME280_temperature;BME280_humidity;BME280_pressure;Samples;Min_cycle;Max_cycle;Signal;HPM_P1;HPM_P2
2022/03/21 00:00:53;;;;;;;44.40;21.92;;;;;;;;;;5003546;28;20314;-73
2022/03/21 00:03:21;;;;;;;50.85;23.35;;;;;;;;;;5002426;28;20034;-73
2022/03/21 00:05:47;;;;;;;43.53;22.67;;;;;;;;;;5003593;28;20217;-74
2022/03/21 00:08:14;;;;;;;39.03;21.35;;;;;;;;;;4982924;28;20075;-73
2022/03/21 00:10:40;;;;;;;41.53;21.30;;;;;;;;;;4988347;28;20033;-74
2022/03/21 00:13:07;;;;;;;42.53;22.20;;;;;;;;;;4982935;28;20073;-73
2022/03/21 00:15:33;;;;;;;42.33;22.67;;;;;;;;;;4982424;28;20319;-73
2022/03/21 00:18:07;;;;;;;46.72;22.90;;;;;;;;;;4982758;28;20035;-73
2022/03/21 00:20:33;;;;;;;44.15;22.92;;;;;;;;;;4985227;28;20377;-73
2022/03/21 00:22:59;;;;;;;45.58;22.35;;;;;;;;;;5001420;28;20022;-73
2022/03/21 00:25:25;;;;;;;42.53;21.98;;;;;;;;;;5002618;28;20237;-74
2022/03/21 00:27:50;;;;;;;44.03;22.65;;;;;;;;;;5002214;28;20022;-74
2022/03/21 00:30:17;;;;;;;45.28;23.35;;;;;;;;;;5002123;28;20037;-73
2022/03/21 00:32:43;;;;;;;45.35;22.75;;;;;;;;;;5002513;28;20046;-74
2022/03/21 00:35:10;;;;;;;43.65;21.70;;;;;;;;;;5002283;28;20031;-77
2022/03/21 00:37:37;;;;;;;44.95;22.58;;;;;;;;;;5002204;28;20089;-75
2022/03/21 00:40:05;;;;;;;44.72;23.15;;;;;;;;;;5002429;28;20042;-75
2022/03/21 00:42:34;;;;;;;47.15;23.33;;;;;;;;;;4997883;28;20226;-74
2022/03/21 00:45:12;;;;;;;43.20;22.20;;;;;;;;;;5002639;28;20026;-74
2022/03/21 00:47:38;;;;;;;46.42;23.77;;;;;;;;;;5002311;28;20049;-74
2022/03/21 00:50:09;;;;;;;42.53;21.98;;;;;;;;;;5002155;28;20093;-74
2022/03/21 00:52:55;;;;;;;43.53;23.15;;;;;;;;;;5001950;28;20022;-74
2022/03/21 00:55:22;;;;;;;47.70;23.17;;;;;;;;;;5002357;28;20061;-73
2022/03/21 00:57:48;;;;;;;45.75;22.80;;;;;;;;;;5001385;28;20061;-73
2022/03/21 01:00:26;;;;;;;44.25;23.95;;;;;;;;;;5000714;28;20027;-73
2022/03/21 01:02:53;;;;;;;44.92;22.65;;;;;;;;;;5002141;28;20348;-73
2022/03/21 01:05:19;;;;;;;43.03;22.20;;;;;;;;;;5001956;28;20343;-73
2022/03/21 01:07:46;;;;;;;42.80;21.92;;;;;;;;;;5002004;28;20086;-74
2022/03/21 01:10:16;;;;;;;40.60;22.13;;;;;;;;;;5002021;28;20214;-74
2022/03/21 01:12:43;;;;;;;41.50;21.92;;;;;;;;;;5001551;28;20076;-73
2022/03/21 01:15:10;;;;;;;44.35;22.38;;;;;;;;;;5001759;28;20030;-73
2022/03/21 01:17:36;;;;;;;44.00;23.23;;;;;;;;;;5001740;28;20042;-73
2022/03/21 01:20:03;;;;;;;42.92;23.02;;;;;;;;;;5001384;28;20033;-73
2022/03/21 01:22:28;;;;;;;42.55;22.42;;;;;;;;;;5000671;28;20326;-73
2022/03/21 01:24:53;;;;;;;40.38;22.15;;;;;;;;;;5001554;28;20018;-73
2022/03/21 01:27:19;;;;;;;45.95;22.92;;;;;;;;;;5000061;28;20022;-73
2022/03/21 01:29:44;;;;;;;45.40;23.95;;;;;;;;;;5001349;28;20099;-73
2022/03/21 01:32:10;;;;;;;41.15;22.02;;;;;;;;;;5001625;28;20196;-73
2022/03/21 01:34:35;;;;;;;45.80;23.35;;;;;;;;;;5002076;28;20033;-80
2022/03/21 01:37:00;;;;;;;43.88;22.45;;;;;;;;;;5001876;28;20042;-75
2022/03/21 01:39:26;;;;;;;43.20;22.58;;;;;;;;;;5005850;28;20106;-79
2022/03/21 01:41:52;;;;;;;44.17;21.77;;;;;;;;;;5006122;28;20022;-76
2022/03/21 01:44:18;;;;;;;43.95;22.23;;;;;;;;;;5002229;28;20320;-78
2022/03/21 01:46:47;;;;;;;46.83;22.20;;;;;;;;;;5001900;28;20028;-78
2022/03/21 01:49:13;;;;;;;43.75;22.13;;;;;;;;;;5001852;28;20306;-78
2022/03/21 01:51:41;;;;;;;44.72;22.25;;;;;;;;;;5001573;28;20030;-74
2022/03/21 01:56:51;;;;;;;40.38;21.58;;;;;;;;;;5000542;28;20037;-75
2022/03/21 01:59:21;;;;;;;42.60;21.83;;;;;;;;;;5001257;28;20054;-79
2022/03/21 02:01:47;;;;;;;43.47;22.67;;;;;;;;;;5001141;28;20041;-78
2022/03/21 02:04:13;;;;;;;45.28;22.73;;;;;;;;;;5000876;28;20030;-75
2022/03/21 02:06:42;;;;;;;43.30;21.95;;;;;;;;;;5001234;28;20040;-77
2022/03/21 02:09:08;;;;;;;44.42;22.35;;;;;;;;;;5001733;28;20030;-79
2022/03/21 02:11:33;;;;;;;42.20;22.52;;;;;;;;;;5001217;28;20357;-75
2022/03/21 02:14:01;;;;;;;50.22;22.55;;;;;;;;;;5011906;28;20033;-75
2022/03/21 02:16:29;;;;;;;41.03;23.05;;;;;;;;;;5002619;28;20034;-78
2022/03/21 02:18:57;;;;;;;46.40;21.60;;;;;;;;;;5001302;28;20022;-77
2022/03/21 02:21:37;;;;;;;48.20;23.80;;;;;;;;;;5001569;28;20037;-78
2022/03/21 02:24:09;;;;;;;41.45;21.15;;;;;;;;;;5001520;28;20026;-74
2022/03/21 02:26:35;;;;;;;41.50;21.83;;;;;;;;;;5000889;28;20029;-75
2022/03/21 02:29:02;;;;;;;47.65;22.75;;;;;;;;;;5001206;28;20026;-74
2022/03/21 02:31:28;;;;;;;41.50;20.92;;;;;;;;;;5001363;28;20018;-74
2022/03/21 02:33:55;;;;;;;45.67;22.65;;;;;;;;;;5002861;28;20044;-75
2022/03/21 02:36:22;;;;;;;40.60;22.30;;;;;;;;;;5004636;28;20068;-75
2022/03/21 02:38:48;;;;;;;42.50;22.13;;;;;;;;;;5004899;28;20046;-74
2022/03/21 02:41:15;;;;;;;42.95;21.10;;;;;;;;;;5004114;28;20265;-74
2022/03/21 02:43:57;;;;;;;45.50;22.48;;;;;;;;;;5004896;28;20084;-74
2022/03/21 02:46:23;;;;;;;46.42;23.17;;;;;;;;;;5004417;28;20034;-74
2022/03/21 02:48:51;;;;;;;44.40;22.15;;;;;;;;;;5004709;28;20222;-74
2022/03/21 02:51:20;;;;;;;43.08;21.77;;;;;;;;;;5003509;28;20026;-75
2022/03/21 02:53:48;;;;;;;46.00;22.35;;;;;;;;;;5004774;28;20029;-75
2022/03/21 02:56:13;;;;;;;46.13;22.80;;;;;;;;;;5003722;28;20037;-74
2022/03/21 02:58:39;;;;;;;41.30;21.88;;;;;;;;;;5004507;28;20030;-74
2022/03/21 03:01:09;;;;;;;47.65;23.40;;;;;;;;;;5035956;28;20034;-74
2022/03/21 03:03:34;;;;;;;42.03;22.88;;;;;;;;;;5004504;28;20033;-75
2022/03/21 03:06:00;;;;;;;46.05;22.80;;;;;;;;;;5003369;28;20045;-74
2022/03/21 03:08:25;;;;;;;43.13;22.80;;;;;;;;;;5004410;28;20113;-74
2022/03/21 03:10:51;;;;;;;49.55;22.48;;;;;;;;;;5003380;28;20033;-74
2022/03/21 03:13:16;;;;;;;42.65;23.00;;;;;;;;;;5004671;28;20031;-74
2022/03/21 03:15:41;;;;;;;43.65;22.35;;;;;;;;;;5004579;28;20034;-74
2022/03/21 03:18:07;;;;;;;45.85;23.92;;;;;;;;;;5004317;28;20270;-74
2022/03/21 03:20:32;;;;;;;42.83;22.35;;;;;;;;;;5004278;28;20211;-74
2022/03/21 03:23:00;;;;;;;45.83;22.05;;;;;;;;;;5004413;28;20022;-74
2022/03/21 03:25:26;;;;;;;45.03;22.30;;;;;;;;;;5005098;28;20089;-74
2022/03/21 03:27:52;;;;;;;46.55;22.02;;;;;;;;;;5004536;28;20039;-74
2022/03/21 03:30:17;;;;;;;43.67;22.60;;;;;;;;;;5004324;28;20057;-73
2022/03/21 03:32:44;;;;;;;46.10;22.77;;;;;;;;;;5004537;28;20085;-74
2022/03/21 03:35:09;;;;;;;47.15;22.80;;;;;;;;;;5004161;28;20030;-75
2022/03/21 03:37:35;;;;;;;45.03;23.27;;;;;;;;;;5004061;28;20102;-75
2022/03/21 03:40:03;;;;;;;42.05;22.77;;;;;;;;;;5004646;28;20030;-75
2022/03/21 03:42:29;;;;;;;44.55;22.02;;;;;;;;;;5004239;28;20022;-75
2022/03/21 03:44:54;;;;;;;40.70;21.40;;;;;;;;;;5022549;28;20083;-75
2022/03/21 03:47:19;;;;;;;45.83;22.55;;;;;;;;;;5023717;28;20085;-76
2022/03/21 03:49:45;;;;;;;42.22;22.98;;;;;;;;;;5023412;28;20041;-78
2022/03/21 03:52:10;;;;;;;43.28;22.33;;;;;;;;;;5023701;28;20091;-78
2022/03/21 03:54:35;;;;;;;44.55;22.90;;;;;;;;;;5022670;28;20021;-75
2022/03/21 03:57:01;;;;;;;44.55;22.02;;;;;;;;;;5023596;28;20026;-74
2022/03/21 03:59:26;;;;;;;42.83;22.73;;;;;;;;;;5023472;28;20038;-76
2022/03/21 04:01:51;;;;;;;44.25;21.90;;;;;;;;;;5023333;28;20344;-79
2022/03/21 04:04:19;;;;;;;41.20;22.92;;;;;;;;;;5010724;28;20030;-75
2022/03/21 04:06:44;;;;;;;45.50;22.45;;;;;;;;;;5003365;28;20314;-75
2022/03/21 04:09:09;;;;;;;41.95;21.73;;;;;;;;;;5003457;28;20072;-78
2022/03/21 04:11:35;;;;;;;44.90;23.02;;;;;;;;;;5003566;28;20034;-74
2022/03/21 04:14:00;;;;;;;42.65;22.48;;;;;;;;;;5003615;28;20073;-74
2022/03/21 04:16:26;;;;;;;45.08;22.75;;;;;;;;;;5003709;28;20093;-75
2022/03/21 04:18:51;;;;;;;43.75;22.27;;;;;;;;;;5003366;28;20026;-74
2022/03/21 04:21:16;;;;;;;42.97;22.40;;;;;;;;;;5003263;28;20093;-74
2022/03/21 04:23:42;;;;;;;43.78;22.45;;;;;;;;;;5003517;28;20085;-74
2022/03/21 04:26:08;;;;;;;43.38;22.95;;;;;;;;;;5003339;28;20026;-73
2022/03/21 04:28:34;;;;;;;43.65;22.83;;;;;;;;;;5003318;28;20018;-74
2022/03/21 04:30:59;;;;;;;47.92;23.05;;;;;;;;;;5003419;28;20038;-74
2022/03/21 04:33:24;;;;;;;46.55;22.08;;;;;;;;;;5003443;28;20023;-74
2022/03/21 04:35:50;;;;;;;45.28;23.20;;;;;;;;;;5004180;28;20030;-75
2022/03/21 04:38:16;;;;;;;46.72;22.40;;;;;;;;;;5004334;28;20042;-74
2022/03/21 04:40:47;;;;;;;44.28;22.35;;;;;;;;;;5002968;28;20152;-74
2022/03/21 04:43:13;;;;;;;43.90;22.20;;;;;;;;;;4995168;28;20065;-73
2022/03/21 04:45:39;;;;;;;45.30;23.02;;;;;;;;;;5003109;28;20033;-74
2022/03/21 04:48:05;;;;;;;41.53;22.27;;;;;;;;;;5001893;28;20097;-74
2022/03/21 04:50:32;;;;;;;44.53;22.42;;;;;;;;;;5002515;28;20030;-74
2022/03/21 04:52:58;;;;;;;41.85;22.98;;;;;;;;;;5002896;28;20056;-74
2022/03/21 04:55:23;;;;;;;42.35;22.65;;;;;;;;;;5002861;28;20030;-75
2022/03/21 04:57:49;;;;;;;48.08;23.05;;;;;;;;;;5001616;28;20090;-75
2022/03/21 05:00:15;;;;;;;49.40;22.48;;;;;;;;;;5002681;28;20034;-74
2022/03/21 05:02:41;;;;;;;43.05;21.83;;;;;;;;;;5002815;28;20104;-74
2022/03/21 05:05:08;;;;;;;44.13;23.27;;;;;;;;;;5002574;28;20037;-74
2022/03/21 05:07:39;;;;;;;44.63;23.20;;;;;;;;;;5002539;28;20277;-74
2022/03/21 05:10:05;;;;;;;44.28;22.50;;;;;;;;;;5002623;28;20214;-74
2022/03/21 05:12:30;;;;;;;40.25;21.67;;;;;;;;;;5002265;28;20018;-74
2022/03/21 05:14:56;;;;;;;43.03;22.48;;;;;;;;;;5002638;28;20038;-74
2022/03/21 05:17:21;;;;;;;45.92;22.48;;;;;;;;;;5002314;28;20026;-74
2022/03/21 05:19:47;;;;;;;44.88;23.17;;;;;;;;;;5002165;28;20326;-74
2022/03/21 05:22:12;;;;;;;47.42;22.17;;;;;;;;;;5002083;28;20030;-74
2022/03/21 05:35:52;;;;;;;43.58;21.38;;;;;;;;;;5002074;28;20337;-74
2022/03/21 05:35:55;;;;;;;49.50;22.20;;;;;;;;;;5001853;28;20034;-74
2022/03/21 05:38:25;;;;;;;45.38;22.45;;;;;;;;;;5033644;28;20068;-74
2022/03/21 05:40:52;;;;;;;46.33;22.17;;;;;;;;;;5002177;28;20034;-75
2022/03/21 05:43:18;;;;;;;46.78;22.40;;;;;;;;;;5002131;28;20033;-75
2022/03/21 05:45:44;;;;;;;43.90;22.42;;;;;;;;;;5001814;28;20293;-74
2022/03/21 05:50:53;;;;;;;41.92;21.77;;;;;;;;;;5001369;28;20029;-77
2022/03/21 05:53:18;;;;;;;46.03;22.92;;;;;;;;;;5000983;28;20030;-78
2022/03/21 05:55:45;;;;;;;42.63;22.30;;;;;;;;;;5001601;28;20022;-76
2022/03/21 05:58:12;;;;;;;47.10;21.98;;;;;;;;;;5000960;28;20023;-74
2022/03/21 06:00:38;;;;;;;47.72;23.23;;;;;;;;;;5001601;28;20026;-74
2022/03/21 06:03:04;;;;;;;42.03;21.58;;;;;;;;;;5001834;28;20312;-75
2022/03/21 06:05:29;;;;;;;41.90;22.30;;;;;;;;;;5001515;28;20026;-76
2022/03/21 06:07:55;;;;;;;48.40;23.38;;;;;;;;;;5001218;28;20214;-74
2022/03/21 06:10:20;;;;;;;46.33;23.13;;;;;;;;;;5001437;28;20030;-74
2022/03/21 06:12:46;;;;;;;46.20;23.08;;;;;;;;;;5001512;28;20026;-75
2022/03/21 06:15:12;;;;;;;46.38;22.20;;;;;;;;;;5001678;28;20223;-74
2022/03/21 06:17:39;;;;;;;45.53;22.45;;;;;;;;;;5001148;28;20030;-74
2022/03/21 06:20:15;;;;;;;46.00;22.65;;;;;;;;;;5001379;28;20026;-74
2022/03/21 06:22:41;;;;;;;45.90;22.42;;;;;;;;;;5001319;28;20026;-75
2022/03/21 06:25:07;;;;;;;45.65;22.45;;;;;;;;;;5000242;28;20149;-76
2022/03/21 06:27:39;;;;;;;45.15;22.70;;;;;;;;;;5001137;28;20277;-76
2022/03/21 06:30:07;;;;;;;47.22;23.33;;;;;;;;;;5000099;28;20030;-75
2022/03/21 06:32:33;;;;;;;52.03;23.55;;;;;;;;;;5001538;28;20033;-74
2022/03/21 06:35:00;;;;;;;46.53;23.25;;;;;;;;;;5000696;28;20330;-74
2022/03/21 06:37:25;;;;;;;46.75;22.75;;;;;;;;;;5001073;28;20054;-74
2022/03/21 06:39:51;;;;;;;43.65;23.25;;;;;;;;;;5001264;28;20124;-75
2022/03/21 06:42:17;;;;;;;47.50;22.92;;;;;;;;;;5000381;28;20050;-75
2022/03/21 06:44:43;;;;;;;46.38;22.88;;;;;;;;;;5000771;28;20041;-74
2022/03/21 06:47:09;;;;;;;51.75;21.58;;;;;;;;;;5000304;28;20026;-75
2022/03/21 06:49:36;;;;;;;43.97;22.40;;;;;;;;;;5001087;28;20034;-74
2022/03/21 06:52:08;;;;;;;50.50;22.45;;;;;;;;;;5000940;28;20087;-75
2022/03/21 06:54:34;;;;;;;50.33;23.13;;;;;;;;;;5001087;28;20027;-75
2022/03/21 06:56:59;;;;;;;47.30;22.80;;;;;;;;;;5001004;28;20253;-74
2022/03/21 06:59:24;;;;;;;48.22;22.58;;;;;;;;;;5000940;28;20026;-73
2022/03/21 07:01:50;;;;;;;47.15;22.58;;;;;;;;;;5000871;28;20218;-75
2022/03/21 07:04:16;;;;;;;51.67;23.38;;;;;;;;;;5000796;28;20030;-74
2022/03/21 07:06:41;;;;;;;47.13;23.80;;;;;;;;;;5000912;28;20487;-75
2022/03/21 07:09:06;;;;;;;44.72;23.20;;;;;;;;;;5000274;28;20019;-74
2022/03/21 07:11:34;;;;;;;51.55;22.65;;;;;;;;;;5000677;28;20025;-76
2022/03/21 07:14:00;;;;;;;46.63;23.27;;;;;;;;;;5000614;28;20036;-73
2022/03/21 07:16:26;;;;;;;46.53;23.98;;;;;;;;;;5000125;28;20042;-73
2022/03/21 07:18:51;;;;;;;48.83;23.42;;;;;;;;;;5000056;28;20399;-72
2022/03/21 07:21:16;;;;;;;45.65;23.17;;;;;;;;;;5002328;28;20022;-76
2022/03/21 07:23:42;;;;;;;44.30;22.73;;;;;;;;;;5003989;28;20057;-73
2022/03/21 07:26:08;;;;;;;43.67;22.35;;;;;;;;;;5003458;28;20030;-71
2022/03/21 07:28:33;;;;;;;44.40;23.40;;;;;;;;;;5003067;28;20022;-72
2022/03/21 07:30:59;;;;;;;43.90;22.88;;;;;;;;;;5001483;28;20114;-74
2022/03/21 07:33:24;;;;;;;50.03;23.33;;;;;;;;;;5002823;28;20026;-73
2022/03/21 07:35:50;;;;;;;48.05;22.77;;;;;;;;;;5008037;28;20029;-72
2022/03/21 07:38:18;;;;;;;46.83;22.15;;;;;;;;;;5007244;28;20042;-73
2022/03/21 07:40:46;;;;;;;47.38;23.15;;;;;;;;;;5003678;28;20234;-74
2022/03/21 07:43:12;;;;;;;47.10;22.90;;;;;;;;;;5003726;28;20041;-71
2022/03/21 07:48:22;;;;;;;42.90;20.88;;;;;;;;;;5003296;28;20057;-75
2022/03/21 07:50:47;;;;;;;35.83;20.35;;;;;;;;;;5003135;28;20037;-72
2022/03/21 07:53:12;;;;;;;46.95;21.67;;;;;;;;;;5003403;28;20023;-72
2022/03/21 07:55:38;;;;;;;35.55;19.83;;;;;;;;;;5003812;28;20030;-75
2022/03/21 07:58:04;;;;;;;35.55;18.85;;;;;;;;;;5009568;28;20022;-75
2022/03/21 08:00:31;;;;;;;35.47;18.92;;;;;;;;;;5002197;28;20042;-72
2022/03/21 08:02:58;;;;;;;36.28;18.25;;;;;;;;;;5005979;28;20037;-75
2022/03/21 08:05:23;;;;;;;39.28;19.75;;;;;;;;;;5002653;28;20028;-73
2022/03/21 08:07:51;;;;;;;34.80;18.80;;;;;;;;;;5010936;28;20226;-72
2022/03/21 08:10:18;;;;;;;28.25;16.50;;;;;;;;;;5003254;28;20030;-73
2022/03/21 08:12:46;;;;;;;68.15;18.48;;;;;;;;;;5002877;28;20026;-71
2022/03/21 08:15:12;;;;;;;32.53;16.80;;;;;;;;;;5004225;28;20052;-72
2022/03/21 08:18:00;;;;;;;30.48;16.42;;;;;;;;;;5003314;28;20038;-72
2022/03/21 08:20:35;;;;;;;29.83;16.25;;;;;;;;;;5003243;28;20053;-73
2022/03/21 08:23:02;;;;;;;30.65;16.13;;;;;;;;;;5000018;28;20084;-73
2022/03/21 08:25:28;;;;;;;28.88;15.48;;;;;;;;;;5002816;28;20218;-73
2022/03/21 08:27:53;;;;;;;29.10;15.00;;;;;;;;;;5003023;28;20091;-73
2022/03/21 08:30:19;;;;;;;26.98;14.35;;;;;;;;;;5002592;28;20060;-74
2022/03/21 08:32:48;;;;;;;26.90;13.95;;;;;;;;;;5001988;28;20078;-75
2022/03/21 08:35:17;;;;;;;24.65;12.93;;;;;;;;;;5019562;28;20033;-74
2022/03/21 08:37:42;;;;;;;25.42;12.65;;;;;;;;;;5019751;28;20109;-74
2022/03/21 08:40:09;;;;;;;29.40;13.00;;;;;;;;;;4999145;28;20350;-74
2022/03/21 08:42:35;;;;;;;21.65;12.25;;;;;;;;;;4996387;28;20033;-76
2022/03/21 08:45:00;;;;;;;21.55;12.32;;;;;;;;;;4992882;28;20030;-74
2022/03/21 08:47:26;;;;;;;21.35;12.85;;;;;;;;;;4990107;28;20054;-75
2022/03/21 08:49:51;;;;;;;22.50;12.40;;;;;;;;;;4982459;28;20253;-74
2022/03/21 08:52:19;;;;;;;21.23;11.70;;;;;;;;;;4984642;28;20038;-77
2022/03/21 08:54:45;;;;;;;23.88;11.25;;;;;;;;;;4992503;28;20030;-77
2022/03/21 08:57:10;;;;;;;21.67;11.63;;;;;;;;;;4986908;28;20110;-77
2022/03/21 08:59:36;;;;;;;20.83;11.27;;;;;;;;;;4982004;28;20107;-75
2022/03/21 09:02:02;;;;;;;20.02;10.50;;;;;;;;;;4982457;28;20030;-75
2022/03/21 09:04:28;;;;;;;19.48;10.88;;;;;;;;;;4980696;28;20095;-77
2022/03/21 09:06:53;;;;;;;20.55;11.00;;;;;;;;;;4982293;28;20018;-76
2022/03/21 09:09:19;;;;;;;22.25;11.13;;;;;;;;;;4981448;28;20223;-72
2022/03/21 09:11:44;;;;;;;18.20;10.93;;;;;;;;;;4983781;28;20030;-75
2022/03/21 09:14:10;;;;;;;22.73;10.70;;;;;;;;;;5001873;28;20046;-74
2022/03/21 09:16:38;;;;;;;18.67;10.00;;;;;;;;;;5000302;28;20214;-73
2022/03/21 09:19:04;;;;;;;19.48;9.70;;;;;;;;;;4999977;28;20026;-73
2022/03/21 09:21:30;;;;;;;16.27;9.88;;;;;;;;;;5002114;28;20230;-76
2022/03/21 09:23:56;;;;;;;18.35;9.90;;;;;;;;;;5002425;28;20034;-72
2022/03/21 09:26:22;;;;;;;15.88;9.88;;;;;;;;;;5001110;28;20038;-71
2022/03/21 09:28:49;;;;;;;17.35;9.35;;;;;;;;;;5001428;28;20108;-71
2022/03/21 09:31:15;;;;;;;18.30;9.40;;;;;;;;;;5000355;28;20058;-75
2022/03/21 09:33:41;;;;;;;14.93;8.93;;;;;;;;;;5000761;28;20049;-74
2022/03/21 09:36:08;;;;;;;16.55;9.95;;;;;;;;;;4989674;28;20179;-76
2022/03/21 09:38:34;;;;;;;15.15;9.23;;;;;;;;;;4986397;28;20663;-69
2022/03/21 09:41:01;;;;;;;16.33;8.82;;;;;;;;;;4986877;28;20102;-69
2022/03/21 09:43:29;;;;;;;15.85;9.07;;;;;;;;;;4981102;28;20411;-71
2022/03/21 09:45:57;;;;;;;16.30;8.93;;;;;;;;;;4980570;28;20026;-71
2022/03/21 09:48:24;;;;;;;14.75;9.18;;;;;;;;;;4984281;28;20093;-71
2022/03/21 09:50:52;;;;;;;17.05;9.40;;;;;;;;;;5007355;28;20137;-70
2022/03/21 09:53:18;;;;;;;17.83;9.10;;;;;;;;;;4992710;28;20049;-74
2022/03/21 09:55:45;;;;;;;17.80;9.23;;;;;;;;;;5020523;28;20330;-73
2022/03/21 09:58:10;;;;;;;17.05;8.95;;;;;;;;;;5005243;28;20315;-73
2022/03/21 10:00:38;;;;;;;19.20;8.95;;;;;;;;;;5007567;28;20037;-72
2022/03/21 10:03:04;;;;;;;15.93;9.05;;;;;;;;;;5001534;28;20026;-74
2022/03/21 10:05:34;;;;;;;15.30;9.05;;;;;;;;;;5000388;28;20065;-70
2022/03/21 10:08:13;;;;;;;13.50;8.13;;;;;;;;;;5001634;28;20026;-74
2022/03/21 10:10:39;;;;;;;14.23;8.25;;;;;;;;;;5000272;28;20074;-71
2022/03/21 10:13:09;;;;;;;14.65;8.07;;;;;;;;;;4997126;28;20097;-71
2022/03/21 10:15:35;;;;;;;13.23;7.30;;;;;;;;;;5000533;28;20093;-72
2022/03/21 10:18:09;;;;;;;15.88;7.20;;;;;;;;;;4998077;28;20030;-73
2022/03/21 10:20:36;;;;;;;16.73;7.95;;;;;;;;;;4998334;28;20373;-72
2022/03/21 10:23:15;;;;;;;13.32;7.47;;;;;;;;;;4999863;28;20022;-72
2022/03/21 10:25:41;;;;;;;11.90;7.00;;;;;;;;;;5000053;28;20089;-73
2022/03/21 10:28:06;;;;;;;13.70;7.40;;;;;;;;;;4999164;28;20029;-72
2022/03/21 10:30:32;;;;;;;12.80;7.20;;;;;;;;;;5000770;28;20038;-72
2022/03/21 10:32:59;;;;;;;11.00;7.20;;;;;;;;;;5000593;28;20265;-73
2022/03/21 10:35:31;;;;;;;14.05;7.30;;;;;;;;;;4998590;28;20026;-72
2022/03/21 10:38:02;;;;;;;14.73;6.57;;;;;;;;;;4996337;28;20069;-72
2022/03/21 10:40:36;;;;;;;9.07;5.95;;;;;;;;;;4999434;28;20086;-73
2022/03/21 10:43:05;;;;;;;21.08;7.25;;;;;;;;;;4999898;28;20072;-72
2022/03/21 10:45:34;;;;;;;9.90;6.38;;;;;;;;;;4992666;28;20073;-72
2022/03/21 10:47:59;;;;;;;11.20;6.25;;;;;;;;;;4982505;28;20038;-73
2022/03/21 10:50:30;;;;;;;9.05;6.40;;;;;;;;;;4991159;28;20034;-73
2022/03/21 10:53:03;;;;;;;11.73;6.35;;;;;;;;;;4982564;28;20019;-73
2022/03/21 10:55:29;;;;;;;10.30;5.95;;;;;;;;;;4984104;28;20049;-72
2022/03/21 10:57:55;;;;;;;10.05;6.15;;;;;;;;;;4994922;28;20318;-73
2022/03/21 11:00:23;;;;;;;10.48;5.95;;;;;;;;;;4990065;28;20030;-73
2022/03/21 11:03:01;;;;;;;9.55;5.80;;;;;;;;;;4983650;28;20070;-73
2022/03/21 11:05:30;;;;;;;12.88;6.47;;;;;;;;;;4982512;28;20038;-74
2022/03/21 11:07:55;;;;;;;10.13;5.88;;;;;;;;;;4985137;28;20030;-73
2022/03/21 11:10:22;;;;;;;8.75;5.72;;;;;;;;;;4985599;28;20031;-73
2022/03/21 11:12:47;;;;;;;9.40;5.53;;;;;;;;;;4996313;28;20089;-72
2022/03/21 11:15:14;;;;;;;11.35;5.88;;;;;;;;;;4993807;28;20018;-74
2022/03/21 11:17:41;;;;;;;8.40;5.43;;;;;;;;;;4999614;28;20026;-75
2022/03/21 11:20:08;;;;;;;9.35;4.80;;;;;;;;;;4999921;28;20026;-74
2022/03/21 11:22:35;;;;;;;10.00;5.50;;;;;;;;;;5001928;28;20022;-74
2022/03/21 11:25:05;;;;;;;8.48;5.20;;;;;;;;;;5001166;28;20038;-74
2022/03/21 11:27:49;;;;;;;9.70;4.75;;;;;;;;;;4995347;28;20553;-73
2022/03/21 11:30:27;;;;;;;7.85;4.82;;;;;;;;;;4992817;28;20030;-72
2022/03/21 11:33:07;;;;;;;7.15;4.13;;;;;;;;;;4991448;28;20463;-73
2022/03/21 11:35:34;;;;;;;7.65;5.10;;;;;;;;;;4998666;28;20105;-73
2022/03/21 11:38:22;;;;;;;8.27;5.15;;;;;;;;;;5000279;28;20054;-72
2022/03/21 11:40:48;;;;;;;8.30;4.80;;;;;;;;;;5003931;28;20035;-76
2022/03/21 11:43:22;;;;;;;7.47;5.00;;;;;;;;;;5004274;28;20014;-73
2022/03/21 11:45:55;;;;;;;10.32;5.50;;;;;;;;;;5004083;28;20034;-72
2022/03/21 11:48:23;;;;;;;8.32;5.05;;;;;;;;;;5003794;28;20094;-73
2022/03/21 11:50:56;;;;;;;9.13;5.50;;;;;;;;;;5002526;28;20030;-73
2022/03/21 11:53:29;;;;;;;8.60;5.38;;;;;;;;;;5003788;28;20085;-76
2022/03/21 11:55:54;;;;;;;10.75;5.40;;;;;;;;;;5001975;28;20022;-73
2022/03/21 11:58:40;;;;;;;9.77;5.43;;;;;;;;;;5002906;28;20203;-73
2022/03/21 12:01:05;;;;;;;;;;;;;;;;;;4996586;28;20040;-72
2022/03/21 12:03:31;;;;;;;9.00;5.15;;;;;;;;;;5001644;28;19949;-74
2022/03/21 12:05:56;;;;;;;8.93;4.72;;;;;;;;;;5002348;28;20018;-73
2022/03/21 12:08:33;;;;;;;8.32;4.60;;;;;;;;;;5002691;28;20226;-73
2022/03/21 12:10:59;;;;;;;8.85;5.20;;;;;;;;;;5003050;28;20072;-72
2022/03/21 12:13:24;;;;;;;9.13;5.45;;;;;;;;;;5001118;28;20018;-73
2022/03/21 12:15:53;;;;;;;9.90;6.47;;;;;;;;;;5001749;28;20022;-72
2022/03/21 12:18:39;;;;;;;10.65;5.70;;;;;;;;;;5000048;28;20093;-74
2022/03/21 12:21:11;;;;;;;;;;;;;;;;;;4998938;28;20045;-72
2022/03/21 12:23:36;;;;;;;9.63;6.10;;;;;;;;;;4998890;28;19917;-71
2022/03/21 12:26:03;;;;;;;10.18;6.15;;;;;;;;;;5002604;28;20093;-75
2022/03/21 12:31:22;;;;;;;9.70;6.45;;;;;;;;;;5002695;28;20114;-72
2022/03/21 12:33:47;;;;;;;11.18;6.65;;;;;;;;;;5002712;28;20018;-72
2022/03/21 12:36:30;;;;;;;11.60;7.10;;;;;;;;;;5000840;28;20030;-74
2022/03/21 12:38:55;;;;;;;11.82;6.90;;;;;;;;;;4992141;28;20283;-72
2022/03/21 12:41:21;;;;;;;10.77;6.28;;;;;;;;;;5001372;28;20022;-73
2022/03/21 12:43:52;;;;;;;9.88;6.57;;;;;;;;;;4996864;28;20045;-75
2022/03/21 12:46:20;;;;;;;10.88;6.60;;;;;;;;;;4999157;28;20026;-74
2022/03/21 12:48:47;;;;;;;12.07;7.00;;;;;;;;;;4997828;28;20369;-71
2022/03/21 12:51:23;;;;;;;10.65;6.80;;;;;;;;;;4995866;28;20042;-72
2022/03/21 12:53:48;;;;;;;11.48;6.85;;;;;;;;;;4992813;28;20030;-74
2022/03/21 12:56:18;;;;;;;11.88;7.25;;;;;;;;;;4995928;28;20077;-75
2022/03/21 12:58:46;;;;;;;10.13;6.20;;;;;;;;;;5002280;28;20027;-72
2022/03/21 13:01:13;;;;;;;10.75;6.45;;;;;;;;;;5000603;28;20033;-72
2022/03/21 13:03:39;;;;;;;9.98;6.18;;;;;;;;;;5000000;28;20061;-75
2022/03/21 13:11:50;;;;;;;10.35;5.72;;;;;;;;;;5002256;28;20337;-73
2022/03/21 13:14:18;;;;;;;13.35;5.78;;;;;;;;;;4981940;28;20023;-72
2022/03/21 13:16:53;;;;;;;9.25;6.03;;;;;;;;;;4984948;28;20026;-72
2022/03/21 13:19:22;;;;;;;;;;;;;;;;;;4986183;28;20030;-73
2022/03/21 13:21:49;;;;;;;10.75;5.97;;;;;;;;;;4984558;28;19981;-76
2022/03/21 13:24:17;;;;;;;9.52;5.72;;;;;;;;;;4987410;28;20018;-76
2022/03/21 13:26:44;;;;;;;8.60;5.50;;;;;;;;;;4984413;28;20023;-78
2022/03/21 13:29:13;;;;;;;12.55;5.72;;;;;;;;;;4983001;28;20022;-77
2022/03/21 13:31:39;;;;;;;9.57;5.38;;;;;;;;;;4982875;28;20030;-80
2022/03/21 13:34:08;;;;;;;9.18;5.90;;;;;;;;;;4982651;28;20330;-79
2022/03/21 13:36:42;;;;;;;8.70;5.45;;;;;;;;;;4982581;28;20422;-75
2022/03/21 13:39:12;;;;;;;11.23;5.30;;;;;;;;;;4982630;28;20354;-77
2022/03/21 13:42:00;;;;;;;12.30;5.90;;;;;;;;;;4982612;28;20046;-77
2022/03/21 13:44:33;;;;;;;10.70;5.53;;;;;;;;;;4982386;28;20043;-77
2022/03/21 13:47:08;;;;;;;8.65;5.35;;;;;;;;;;4982523;28;20027;-79
2022/03/21 13:49:43;;;;;;;9.93;5.15;;;;;;;;;;4982413;28;20215;-78
2022/03/21 13:52:09;;;;;;;7.00;4.38;;;;;;;;;;4982680;28;20267;-82
2022/03/21 13:54:51;;;;;;;6.97;4.50;;;;;;;;;;4982276;28;20027;-76
2022/03/21 13:57:16;;;;;;;7.57;4.35;;;;;;;;;;4981215;28;20031;-80
2022/03/21 13:59:42;;;;;;;6.90;4.40;;;;;;;;;;4982572;28;20034;-80
2022/03/21 14:02:09;;;;;;;7.43;4.50;;;;;;;;;;4982066;28;20262;-78
2022/03/21 14:04:37;;;;;;;7.30;4.40;;;;;;;;;;4982217;28;20073;-75
2022/03/21 14:07:04;;;;;;;9.68;4.45;;;;;;;;;;4982419;28;20030;-78
2022/03/21 14:09:30;;;;;;;9.63;4.47;;;;;;;;;;4982274;28;20029;-74
2022/03/21 14:12:12;;;;;;;6.78;4.30;;;;;;;;;;4982010;28;20027;-76
2022/03/21 14:14:38;;;;;;;8.98;4.45;;;;;;;;;;4982297;28;20023;-79
2022/03/21 14:17:04;;;;;;;8.68;4.75;;;;;;;;;;4982139;28;20097;-79
2022/03/21 14:19:31;;;;;;;8.38;4.80;;;;;;;;;;4982149;28;20254;-76
2022/03/21 14:21:57;;;;;;;8.85;4.60;;;;;;;;;;4982111;28;20046;-79
2022/03/21 14:24:22;;;;;;;14.68;4.10;;;;;;;;;;4982321;28;20125;-80
2022/03/21 14:26:48;;;;;;;8.05;4.20;;;;;;;;;;4982138;28;20039;-80
2022/03/21 14:29:16;;;;;;;7.32;3.90;;;;;;;;;;4982769;28;20390;-78
2022/03/21 14:31:42;;;;;;;5.95;3.90;;;;;;;;;;4985788;28;20090;-75
2022/03/21 14:34:07;;;;;;;5.13;3.47;;;;;;;;;;4985954;28;20058;-82
2022/03/21 14:36:33;;;;;;;7.03;3.90;;;;;;;;;;4985617;28;20046;-79
2022/03/21 14:38:58;;;;;;;10.07;3.90;;;;;;;;;;4986105;28;20034;-77
2022/03/21 14:41:24;;;;;;;7.40;4.43;;;;;;;;;;4991399;28;20456;-78
2022/03/21 14:43:51;;;;;;;8.55;3.72;;;;;;;;;;5004273;28;20023;-81
2022/03/21 14:46:20;;;;;;;6.15;3.92;;;;;;;;;;5005372;28;20089;-77
2022/03/21 14:48:49;;;;;;;8.02;4.25;;;;;;;;;;5005266;28;20030;-78
2022/03/21 14:51:15;;;;;;;6.55;3.70;;;;;;;;;;5004784;28;20057;-80
2022/03/21 14:53:41;;;;;;;6.55;4.10;;;;;;;;;;5005238;28;20022;-74